sensor_id;sensor_type;location;lat;lon;timestamp;P1;durP1;ratioP1;P2;durP2;ratioP2
10517;SDS011;5307;42.548;22.968;2023-03-23T00:00:55;53.45;;;18.60;;
10517;SDS011;5307;42.548;22.968;2023-03-23T00:03:22;42.85;;;18.02;;
10517;SDS011;5307;42.548;22.968;2023-03-23T00:05:51;50.85;;;16.42;;
10517;SDS011;5307;42.548;22.968;2023-03-23T00:08:18;38.72;;;18.75;;
10517;SDS011;5307;42.548;22.968;2023-03-23T00:10:51;33.55;;;16.90;;
10517;SDS011;5307;42.548;22.968;2023-03-23T00:13:24;36.70;;;16.30;;
10517;SDS011;5307;42.548;22.968;2023-03-23T00:15:51;43.35;;;16.15;;
10517;SDS011;5307;42.548;22.968;2023-03-23T00:18:20;76.60;;;17.23;;
10517;SDS011;5307;42.548;22.968;2023-03-23T00:20:48;62.25;;;21.92;;
10517;SDS011;5307;42.548;22.968;2023-03-23T00:23:16;54.08;;;19.35;;
10517;SDS011;5307;42.548;22.968;2023-03-23T00:25:48;37.47;;;16.67;;
10517;SDS011;5307;42.548;22.968;2023-03-23T00:28:20;46.10;;;18.75;;
10517;SDS011;5307;42.548;22.968;2023-03-23T00:30:53;53.78;;;20.27;;
10517;SDS011;5307;42.548;22.968;2023-03-23T00:33:21;45.63;;;18.05;;
10517;SDS011;5307;42.548;22.968;2023-03-23T00:35:49;39.30;;;17.63;;
10517;SDS011;5307;42.548;22.968;2023-03-23T00:38:17;36.63;;;15.68;;
10517;SDS011;5307;42.548;22.968;2023-03-23T00:40:44;28.90;;;14.82;;
10517;SDS011;5307;42.548;22.968;2023-03-23T00:43:12;25.73;;;14.57;;
10517;SDS011;5307;42.548;22.968;2023-03-23T00:45:40;25.17;;;13.77;;
10517;SDS011;5307;42.548;22.968;2023-03-23T00:48:07;98.72;;;44.15;;
10517;SDS011;5307;42.548;22.968;2023-03-23T00:50:34;39.70;;;18.52;;
10517;SDS011;5307;42.548;22.968;2023-03-23T00:53:01;36.53;;;19.17;;
10517;SDS011;5307;42.548;22.968;2023-03-23T00:55:28;32.50;;;16.23;;
10517;SDS011;5307;42.548;22.968;2023-03-23T00:57:55;27.13;;;14.60;;
10517;SDS011;5307;42.548;22.968;2023-03-23T01:00:22;24.13;;;12.98;;
10517;SDS011;5307;42.548;22.968;2023-03-23T01:02:51;29.23;;;13.55;;
10517;SDS011;5307;42.548;22.968;2023-03-23T01:05:19;28.05;;;13.05;;
10517;SDS011;5307;42.548;22.968;2023-03-23T01:07:47;33.28;;;13.77;;
10517;SDS011;5307;42.548;22.968;2023-03-23T01:10:14;33.67;;;16.00;;
10517;SDS011;5307;42.548;22.968;2023-03-23T01:12:43;39.45;;;17.67;;
10517;SDS011;5307;42.548;22.968;2023-03-23T01:15:14;41.30;;;17.48;;
10517;SDS011;5307;42.548;22.968;2023-03-23T01:17:42;57.63;;;21.60;;
10517;SDS011;5307;42.548;22.968;2023-03-23T01:20:12;96.28;;;22.90;;
10517;SDS011;5307;42.548;22.968;2023-03-23T01:22:40;85.93;;;25.15;;
10517;SDS011;5307;42.548;22.968;2023-03-23T01:25:08;77.18;;;24.13;;
10517;SDS011;5307;42.548;22.968;2023-03-23T01:27:38;81.57;;;22.88;;
10517;SDS011;5307;42.548;22.968;2023-03-23T01:30:06;80.15;;;20.90;;
10517;SDS011;5307;42.548;22.968;2023-03-23T01:32:37;47.70;;;19.90;;
10517;SDS011;5307;42.548;22.968;2023-03-23T01:35:04;42.70;;;18.45;;
10517;SDS011;5307;42.548;22.968;2023-03-23T01:37:32;54.15;;;17.42;;
10517;SDS011;5307;42.548;22.968;2023-03-23T01:40:01;79.72;;;17.25;;
10517;SDS011;5307;42.548;22.968;2023-03-23T01:42:30;105.03;;;18.55;;
10517;SDS011;5307;42.548;22.968;2023-03-23T01:47:56;248.43;;;24.40;;
10517;SDS011;5307;42.548;22.968;2023-03-23T01:50:29;215.95;;;29.25;;
10517;SDS011;5307;42.548;22.968;2023-03-23T01:53:04;142.07;;;16.63;;
10517;SDS011;5307;42.548;22.968;2023-03-23T01:55:33;132.98;;;15.63;;
10517;SDS011;5307;42.548;22.968;2023-03-23T01:58:04;199.43;;;19.35;;
10517;SDS011;5307;42.548;22.968;2023-03-23T02:00:32;140.75;;;17.45;;
10517;SDS011;5307;42.548;22.968;2023-03-23T02:02:59;149.90;;;17.88;;
10517;SDS011;5307;42.548;22.968;2023-03-23T02:05:28;159.07;;;18.63;;
10517;SDS011;5307;42.548;22.968;2023-03-23T02:07:57;245.30;;;20.08;;
10517;SDS011;5307;42.548;22.968;2023-03-23T02:10:29;180.85;;;21.10;;
10517;SDS011;5307;42.548;22.968;2023-03-23T02:12:57;142.27;;;17.05;;
10517;SDS011;5307;42.548;22.968;2023-03-23T02:15:25;143.98;;;17.38;;
10517;SDS011;5307;42.548;22.968;2023-03-23T02:18:00;230.35;;;27.00;;
10517;SDS011;5307;42.548;22.968;2023-03-23T02:20:41;223.10;;;25.10;;
10517;SDS011;5307;42.548;22.968;2023-03-23T02:23:38;274.60;;;21.27;;
10517;SDS011;5307;42.548;22.968;2023-03-23T02:26:21;310.50;;;29.55;;
10517;SDS011;5307;42.548;22.968;2023-03-23T02:29:12;304.08;;;25.55;;
10517;SDS011;5307;42.548;22.968;2023-03-23T02:31:59;230.95;;;22.85;;
10517;SDS011;5307;42.548;22.968;2023-03-23T02:34:33;208.82;;;20.13;;
10517;SDS011;5307;42.548;22.968;2023-03-23T02:37:07;196.93;;;22.23;;
10517;SDS011;5307;42.548;22.968;2023-03-23T02:39:40;258.45;;;25.10;;
10517;SDS011;5307;42.548;22.968;2023-03-23T02:42:11;225.43;;;23.90;;
10517;SDS011;5307;42.548;22.968;2023-03-23T02:44:42;262.40;;;26.67;;
10517;SDS011;5307;42.548;22.968;2023-03-23T02:47:12;173.35;;;22.58;;
10517;SDS011;5307;42.548;22.968;2023-03-23T02:49:45;100.85;;;18.30;;
10517;SDS011;5307;42.548;22.968;2023-03-23T02:52:16;141.48;;;21.75;;
10517;SDS011;5307;42.548;22.968;2023-03-23T02:54:46;146.00;;;19.77;;
10517;SDS011;5307;42.548;22.968;2023-03-23T02:57:14;118.28;;;19.13;;
10517;SDS011;5307;42.548;22.968;2023-03-23T02:59:42;191.93;;;21.20;;
10517;SDS011;5307;42.548;22.968;2023-03-23T03:02:09;120.22;;;16.40;;
10517;SDS011;5307;42.548;22.968;2023-03-23T03:04:41;126.65;;;17.70;;
10517;SDS011;5307;42.548;22.968;2023-03-23T03:10:04;245.27;;;19.48;;
10517;SDS011;5307;42.548;22.968;2023-03-23T03:12:39;200.70;;;21.83;;
10517;SDS011;5307;42.548;22.968;2023-03-23T03:15:14;195.95;;;19.58;;
10517;SDS011;5307;42.548;22.968;2023-03-23T03:17:52;140.18;;;16.75;;
10517;SDS011;5307;42.548;22.968;2023-03-23T03:20:26;155.45;;;18.05;;
10517;SDS011;5307;42.548;22.968;2023-03-23T03:22:56;194.30;;;20.33;;
10517;SDS011;5307;42.548;22.968;2023-03-23T03:25:24;149.32;;;19.70;;
10517;SDS011;5307;42.548;22.968;2023-03-23T03:27:52;115.28;;;19.25;;
10517;SDS011;5307;42.548;22.968;2023-03-23T03:30:20;121.15;;;18.25;;
10517;SDS011;5307;42.548;22.968;2023-03-23T03:32:51;163.20;;;21.48;;
10517;SDS011;5307;42.548;22.968;2023-03-23T03:35:20;137.70;;;20.23;;
10517;SDS011;5307;42.548;22.968;2023-03-23T03:37:49;115.43;;;18.45;;
10517;SDS011;5307;42.548;22.968;2023-03-23T03:40:18;99.88;;;17.98;;
10517;SDS011;5307;42.548;22.968;2023-03-23T03:42:47;161.52;;;20.15;;
10517;SDS011;5307;42.548;22.968;2023-03-23T03:45:15;183.52;;;23.42;;
10517;SDS011;5307;42.548;22.968;2023-03-23T03:47:43;113.05;;;18.70;;
10517;SDS011;5307;42.548;22.968;2023-03-23T03:50:10;110.95;;;20.70;;
10517;SDS011;5307;42.548;22.968;2023-03-23T03:52:37;105.28;;;16.90;;
10517;SDS011;5307;42.548;22.968;2023-03-23T03:55:07;82.72;;;16.08;;
10517;SDS011;5307;42.548;22.968;2023-03-23T03:57:35;120.18;;;18.58;;
10517;SDS011;5307;42.548;22.968;2023-03-23T04:00:02;142.63;;;21.85;;
10517;SDS011;5307;42.548;22.968;2023-03-23T04:02:40;167.80;;;18.45;;
10517;SDS011;5307;42.548;22.968;2023-03-23T04:05:08;137.18;;;19.17;;
10517;SDS011;5307;42.548;22.968;2023-03-23T04:07:36;142.68;;;18.75;;
10517;SDS011;5307;42.548;22.968;2023-03-23T04:10:05;141.25;;;18.67;;
10517;SDS011;5307;42.548;22.968;2023-03-23T04:12:34;128.50;;;19.17;;
10517;SDS011;5307;42.548;22.968;2023-03-23T04:15:02;153.70;;;17.80;;
10517;SDS011;5307;42.548;22.968;2023-03-23T04:17:29;183.68;;;19.70;;
10517;SDS011;5307;42.548;22.968;2023-03-23T04:19:56;143.48;;;18.25;;
10517;SDS011;5307;42.548;22.968;2023-03-23T04:22:25;136.98;;;16.85;;
10517;SDS011;5307;42.548;22.968;2023-03-23T04:24:56;111.97;;;13.75;;
10517;SDS011;5307;42.548;22.968;2023-03-23T04:27:27;143.80;;;16.20;;
10517;SDS011;5307;42.548;22.968;2023-03-23T04:29:54;202.73;;;16.52;;
10517;SDS011;5307;42.548;22.968;2023-03-23T04:32:23;100.97;;;14.50;;
10517;SDS011;5307;42.548;22.968;2023-03-23T04:34:53;136.77;;;15.70;;
10517;SDS011;5307;42.548;22.968;2023-03-23T04:37:21;140.20;;;15.40;;
10517;SDS011;5307;42.548;22.968;2023-03-23T04:39:51;145.23;;;14.63;;
10517;SDS011;5307;42.548;22.968;2023-03-23T04:42:27;133.68;;;14.65;;
10517;SDS011;5307;42.548;22.968;2023-03-23T04:44:54;172.32;;;28.67;;
10517;SDS011;5307;42.548;22.968;2023-03-23T04:47:21;174.55;;;17.98;;
10517;SDS011;5307;42.548;22.968;2023-03-23T04:49:48;131.07;;;17.42;;
10517;SDS011;5307;42.548;22.968;2023-03-23T04:52:15;94.10;;;19.40;;
10517;SDS011;5307;42.548;22.968;2023-03-23T04:54:42;213.18;;;19.60;;
10517;SDS011;5307;42.548;22.968;2023-03-23T04:57:10;94.60;;;15.55;;
10517;SDS011;5307;42.548;22.968;2023-03-23T04:59:38;114.78;;;16.75;;
10517;SDS011;5307;42.548;22.968;2023-03-23T05:02:06;100.50;;;16.13;;
10517;SDS011;5307;42.548;22.968;2023-03-23T05:04:33;137.93;;;16.95;;
10517;SDS011;5307;42.548;22.968;2023-03-23T05:06:59;153.38;;;17.33;;
10517;SDS011;5307;42.548;22.968;2023-03-23T05:09:26;252.30;;;24.52;;
10517;SDS011;5307;42.548;22.968;2023-03-23T05:11:53;202.35;;;19.20;;
10517;SDS011;5307;42.548;22.968;2023-03-23T05:14:20;165.85;;;20.02;;
10517;SDS011;5307;42.548;22.968;2023-03-23T05:16:48;150.60;;;18.65;;
10517;SDS011;5307;42.548;22.968;2023-03-23T05:19:17;222.57;;;22.80;;
10517;SDS011;5307;42.548;22.968;2023-03-23T05:21:43;74.45;;;19.05;;
10517;SDS011;5307;42.548;22.968;2023-03-23T05:24:10;104.47;;;16.00;;
10517;SDS011;5307;42.548;22.968;2023-03-23T05:26:37;107.55;;;16.25;;
10517;SDS011;5307;42.548;22.968;2023-03-23T05:29:04;112.65;;;15.77;;
10517;SDS011;5307;42.548;22.968;2023-03-23T05:31:31;156.68;;;24.15;;
10517;SDS011;5307;42.548;22.968;2023-03-23T05:33:59;107.15;;;20.80;;
10517;SDS011;5307;42.548;22.968;2023-03-23T05:36:26;98.07;;;15.95;;
10517;SDS011;5307;42.548;22.968;2023-03-23T05:38:53;140.98;;;21.42;;
10517;SDS011;5307;42.548;22.968;2023-03-23T05:41:21;111.70;;;19.48;;
10517;SDS011;5307;42.548;22.968;2023-03-23T05:43:49;129.27;;;25.10;;
10517;SDS011;5307;42.548;22.968;2023-03-23T05:46:16;142.95;;;26.38;;
10517;SDS011;5307;42.548;22.968;2023-03-23T05:48:43;132.80;;;14.82;;
10517;SDS011;5307;42.548;22.968;2023-03-23T05:51:11;123.07;;;17.00;;
10517;SDS011;5307;42.548;22.968;2023-03-23T05:53:38;87.18;;;14.63;;
10517;SDS011;5307;42.548;22.968;2023-03-23T05:56:05;77.57;;;15.35;;
10517;SDS011;5307;42.548;22.968;2023-03-23T05:58:33;116.00;;;19.23;;
10517;SDS011;5307;42.548;22.968;2023-03-23T06:01:00;151.10;;;19.42;;
10517;SDS011;5307;42.548;22.968;2023-03-23T06:03:27;106.80;;;16.65;;
10517;SDS011;5307;42.548;22.968;2023-03-23T06:05:53;194.52;;;20.30;;
10517;SDS011;5307;42.548;22.968;2023-03-23T06:08:22;162.63;;;18.90;;
10517;SDS011;5307;42.548;22.968;2023-03-23T06:10:49;124.38;;;18.48;;
10517;SDS011;5307;42.548;22.968;2023-03-23T06:13:16;90.15;;;18.63;;
10517;SDS011;5307;42.548;22.968;2023-03-23T06:15:42;80.85;;;18.95;;
10517;SDS011;5307;42.548;22.968;2023-03-23T06:18:09;70.47;;;21.08;;
10517;SDS011;5307;42.548;22.968;2023-03-23T06:20:38;150.25;;;26.13;;
10517;SDS011;5307;42.548;22.968;2023-03-23T06:23:05;230.10;;;28.85;;
10517;SDS011;5307;42.548;22.968;2023-03-23T06:25:35;142.68;;;24.98;;
10517;SDS011;5307;42.548;22.968;2023-03-23T06:28:02;157.40;;;28.08;;
10517;SDS011;5307;42.548;22.968;2023-03-23T06:30:29;135.50;;;25.52;;
10517;SDS011;5307;42.548;22.968;2023-03-23T06:32:56;133.90;;;23.50;;
10517;SDS011;5307;42.548;22.968;2023-03-23T06:35:23;122.22;;;24.05;;
10517;SDS011;5307;42.548;22.968;2023-03-23T06:37:50;77.72;;;21.30;;
10517;SDS011;5307;42.548;22.968;2023-03-23T06:40:18;217.75;;;30.80;;
10517;SDS011;5307;42.548;22.968;2023-03-23T06:42:48;146.38;;;27.85;;
10517;SDS011;5307;42.548;22.968;2023-03-23T06:45:14;160.00;;;25.42;;
10517;SDS011;5307;42.548;22.968;2023-03-23T06:47:41;137.23;;;26.60;;
10517;SDS011;5307;42.548;22.968;2023-03-23T06:50:09;121.30;;;27.08;;
10517;SDS011;5307;42.548;22.968;2023-03-23T06:52:36;80.50;;;22.30;;
10517;SDS011;5307;42.548;22.968;2023-03-23T06:55:03;133.57;;;26.05;;
10517;SDS011;5307;42.548;22.968;2023-03-23T06:57:30;150.55;;;27.85;;
10517;SDS011;5307;42.548;22.968;2023-03-23T06:59:59;108.38;;;24.13;;
10517;SDS011;5307;42.548;22.968;2023-03-23T07:02:25;112.68;;;23.83;;
10517;SDS011;5307;42.548;22.968;2023-03-23T07:04:52;113.85;;;26.08;;
10517;SDS011;5307;42.548;22.968;2023-03-23T07:07:19;70.82;;;25.33;;
10517;SDS011;5307;42.548;22.968;2023-03-23T07:09:46;89.07;;;25.20;;
10517;SDS011;5307;42.548;22.968;2023-03-23T07:12:13;88.00;;;27.15;;
10517;SDS011;5307;42.548;22.968;2023-03-23T07:14:40;105.57;;;30.08;;
10517;SDS011;5307;42.548;22.968;2023-03-23T07:17:08;89.95;;;25.90;;
10517;SDS011;5307;42.548;22.968;2023-03-23T07:19:36;86.10;;;23.95;;
10517;SDS011;5307;42.548;22.968;2023-03-23T07:22:04;75.80;;;28.88;;
10517;SDS011;5307;42.548;22.968;2023-03-23T07:24:31;71.40;;;31.48;;
10517;SDS011;5307;42.548;22.968;2023-03-23T07:26:58;79.38;;;28.80;;
10517;SDS011;5307;42.548;22.968;2023-03-23T07:29:25;77.38;;;29.35;;
10517;SDS011;5307;42.548;22.968;2023-03-23T07:31:52;86.80;;;29.20;;
10517;SDS011;5307;42.548;22.968;2023-03-23T07:34:21;83.57;;;28.88;;
10517;SDS011;5307;42.548;22.968;2023-03-23T07:36:48;72.43;;;27.52;;
10517;SDS011;5307;42.548;22.968;2023-03-23T07:39:15;81.05;;;29.45;;
10517;SDS011;5307;42.548;22.968;2023-03-23T07:41:41;84.93;;;31.60;;
10517;SDS011;5307;42.548;22.968;2023-03-23T07:44:08;78.78;;;30.92;;
10517;SDS011;5307;42.548;22.968;2023-03-23T07:46:35;72.95;;;30.17;;
10517;SDS011;5307;42.548;22.968;2023-03-23T07:49:02;76.55;;;32.70;;
10517;SDS011;5307;42.548;22.968;2023-03-23T07:51:32;78.28;;;31.70;;
10517;SDS011;5307;42.548;22.968;2023-03-23T07:53:59;77.22;;;31.88;;
10517;SDS011;5307;42.548;22.968;2023-03-23T07:56:27;71.95;;;30.85;;
10517;SDS011;5307;42.548;22.968;2023-03-23T07:58:54;70.93;;;30.85;;
10517;SDS011;5307;42.548;22.968;2023-03-23T08:01:21;78.50;;;33.47;;
10517;SDS011;5307;42.548;22.968;2023-03-23T08:03:48;83.55;;;35.30;;
10517;SDS011;5307;42.548;22.968;2023-03-23T08:06:16;75.05;;;33.10;;
10517;SDS011;5307;42.548;22.968;2023-03-23T08:08:44;66.20;;;31.45;;
10517;SDS011;5307;42.548;22.968;2023-03-23T08:11:11;72.70;;;31.00;;
10517;SDS011;5307;42.548;22.968;2023-03-23T08:13:40;72.47;;;31.20;;
10517;SDS011;5307;42.548;22.968;2023-03-23T08:16:07;70.63;;;31.33;;
10517;SDS011;5307;42.548;22.968;2023-03-23T08:18:34;77.05;;;36.25;;
10517;SDS011;5307;42.548;22.968;2023-03-23T08:21:02;71.50;;;32.22;;
10517;SDS011;5307;42.548;22.968;2023-03-23T08:23:29;62.53;;;29.98;;
10517;SDS011;5307;42.548;22.968;2023-03-23T08:25:57;75.28;;;34.80;;
10517;SDS011;5307;42.548;22.968;2023-03-23T08:28:24;69.95;;;33.53;;
10517;SDS011;5307;42.548;22.968;2023-03-23T08:30:51;67.07;;;32.03;;
10517;SDS011;5307;42.548;22.968;2023-03-23T08:33:19;55.85;;;30.02;;
10517;SDS011;5307;42.548;22.968;2023-03-23T08:35:53;55.85;;;29.73;;
10517;SDS011;5307;42.548;22.968;2023-03-23T08:38:21;42.30;;;22.48;;
10517;SDS011;5307;42.548;22.968;2023-03-23T08:40:49;35.30;;;21.75;;
10517;SDS011;5307;42.548;22.968;2023-03-23T08:43:17;36.55;;;21.40;;
10517;SDS011;5307;42.548;22.968;2023-03-23T08:45:44;37.45;;;22.70;;
10517;SDS011;5307;42.548;22.968;2023-03-23T08:48:11;29.42;;;18.17;;
10517;SDS011;5307;42.548;22.968;2023-03-23T08:50:38;24.40;;;15.88;;
10517;SDS011;5307;42.548;22.968;2023-03-23T08:53:06;19.38;;;13.55;;
10517;SDS011;5307;42.548;22.968;2023-03-23T08:55:32;17.30;;;11.25;;
10517;SDS011;5307;42.548;22.968;2023-03-23T08:57:59;20.17;;;12.73;;
10517;SDS011;5307;42.548;22.968;2023-03-23T09:00:28;15.30;;;11.43;;
10517;SDS011;5307;42.548;22.968;2023-03-23T09:02:54;17.05;;;12.13;;
10517;SDS011;5307;42.548;22.968;2023-03-23T09:05:23;21.25;;;13.27;;
10517;SDS011;5307;42.548;22.968;2023-03-23T09:07:52;14.32;;;9.50;;
10517;SDS011;5307;42.548;22.968;2023-03-23T09:10:20;15.18;;;9.05;;
10517;SDS011;5307;42.548;22.968;2023-03-23T09:12:47;18.05;;;9.13;;
10517;SDS011;5307;42.548;22.968;2023-03-23T09:15:16;11.70;;;8.23;;
10517;SDS011;5307;42.548;22.968;2023-03-23T09:17:45;11.43;;;8.48;;
10517;SDS011;5307;42.548;22.968;2023-03-23T09:20:14;14.77;;;8.77;;
10517;SDS011;5307;42.548;22.968;2023-03-23T09:22:42;10.80;;;6.93;;
10517;SDS011;5307;42.548;22.968;2023-03-23T09:25:11;11.75;;;8.60;;
10517;SDS011;5307;42.548;22.968;2023-03-23T09:27:40;12.10;;;8.35;;
10517;SDS011;5307;42.548;22.968;2023-03-23T09:30:09;13.80;;;8.40;;
10517;SDS011;5307;42.548;22.968;2023-03-23T09:32:38;14.75;;;8.82;;
10517;SDS011;5307;42.548;22.968;2023-03-23T09:35:07;11.38;;;7.03;;
10517;SDS011;5307;42.548;22.968;2023-03-23T09:37:36;10.82;;;7.55;;
10517;SDS011;5307;42.548;22.968;2023-03-23T09:40:04;12.73;;;8.80;;
10517;SDS011;5307;42.548;22.968;2023-03-23T09:42:41;13.38;;;9.15;;
10517;SDS011;5307;42.548;22.968;2023-03-23T09:45:19;24.95;;;15.90;;
10517;SDS011;5307;42.548;22.968;2023-03-23T09:47:58;12.13;;;9.25;;
10517;SDS011;5307;42.548;22.968;2023-03-23T09:50:34;10.38;;;8.10;;
10517;SDS011;5307;42.548;22.968;2023-03-23T09:53:04;13.27;;;9.52;;
10517;SDS011;5307;42.548;22.968;2023-03-23T09:55:38;10.90;;;6.50;;
10517;SDS011;5307;42.548;22.968;2023-03-23T09:58:09;13.50;;;8.38;;
10517;SDS011;5307;42.548;22.968;2023-03-23T10:00:41;12.65;;;8.63;;
10517;SDS011;5307;42.548;22.968;2023-03-23T10:03:13;14.68;;;8.45;;
10517;SDS011;5307;42.548;22.968;2023-03-23T10:05:44;11.93;;;8.45;;
10517;SDS011;5307;42.548;22.968;2023-03-23T10:08:13;13.23;;;7.68;;
10517;SDS011;5307;42.548;22.968;2023-03-23T10:10:46;12.07;;;8.27;;
10517;SDS011;5307;42.548;22.968;2023-03-23T10:13:24;11.90;;;8.52;;
10517;SDS011;5307;42.548;22.968;2023-03-23T10:15:58;13.32;;;8.02;;
10517;SDS011;5307;42.548;22.968;2023-03-23T10:18:27;12.90;;;9.43;;
10517;SDS011;5307;42.548;22.968;2023-03-23T10:21:00;14.30;;;8.93;;
10517;SDS011;5307;42.548;22.968;2023-03-23T10:23:41;9.52;;;6.78;;
10517;SDS011;5307;42.548;22.968;2023-03-23T10:26:17;15.70;;;9.93;;
10517;SDS011;5307;42.548;22.968;2023-03-23T10:28:59;12.30;;;7.47;;
10517;SDS011;5307;42.548;22.968;2023-03-23T10:31:37;12.70;;;8.70;;
10517;SDS011;5307;42.548;22.968;2023-03-23T10:34:08;10.90;;;7.72;;
10517;SDS011;5307;42.548;22.968;2023-03-23T10:36:48;9.85;;;7.20;;
10517;SDS011;5307;42.548;22.968;2023-03-23T10:39:21;12.43;;;7.95;;
10517;SDS011;5307;42.548;22.968;2023-03-23T10:41:50;13.63;;;8.75;;
10517;SDS011;5307;42.548;22.968;2023-03-23T10:44:18;10.48;;;7.90;;
10517;SDS011;5307;42.548;22.968;2023-03-23T10:46:48;12.48;;;8.20;;
10517;SDS011;5307;42.548;22.968;2023-03-23T10:49:21;11.75;;;8.90;;
10517;SDS011;5307;42.548;22.968;2023-03-23T10:51:53;13.38;;;9.40;;
10517;SDS011;5307;42.548;22.968;2023-03-23T10:54:26;16.13;;;10.23;;
10517;SDS011;5307;42.548;22.968;2023-03-23T10:56:58;16.52;;;8.98;;
10517;SDS011;5307;42.548;22.968;2023-03-23T10:59:26;12.25;;;9.13;;
10517;SDS011;5307;42.548;22.968;2023-03-23T11:01:55;18.08;;;8.63;;
10517;SDS011;5307;42.548;22.968;2023-03-23T11:04:24;12.57;;;8.52;;
10517;SDS011;5307;42.548;22.968;2023-03-23T11:06:54;11.13;;;7.40;;
10517;SDS011;5307;42.548;22.968;2023-03-23T11:09:35;11.80;;;7.88;;
10517;SDS011;5307;42.548;22.968;2023-03-23T11:12:03;10.77;;;7.70;;
10517;SDS011;5307;42.548;22.968;2023-03-23T11:14:31;9.60;;;5.70;;
10517;SDS011;5307;42.548;22.968;2023-03-23T11:17:04;9.90;;;7.82;;
10517;SDS011;5307;42.548;22.968;2023-03-23T11:19:46;12.82;;;8.90;;
10517;SDS011;5307;42.548;22.968;2023-03-23T11:22:16;14.02;;;9.82;;
10517;SDS011;5307;42.548;22.968;2023-03-23T11:24:52;12.13;;;8.30;;
10517;SDS011;5307;42.548;22.968;2023-03-23T11:27:21;10.45;;;8.05;;
10517;SDS011;5307;42.548;22.968;2023-03-23T11:29:50;11.02;;;7.50;;
10517;SDS011;5307;42.548;22.968;2023-03-23T11:32:22;10.60;;;7.28;;
10517;SDS011;5307;42.548;22.968;2023-03-23T11:34:53;13.07;;;8.02;;
10517;SDS011;5307;42.548;22.968;2023-03-23T11:37:28;10.68;;;8.57;;
10517;SDS011;5307;42.548;22.968;2023-03-23T11:39:59;15.65;;;8.23;;
10517;SDS011;5307;42.548;22.968;2023-03-23T11:42:37;13.07;;;7.60;;
10517;SDS011;5307;42.548;22.968;2023-03-23T11:45:18;9.15;;;7.38;;
10517;SDS011;5307;42.548;22.968;2023-03-23T11:47:54;8.73;;;7.13;;
10517;SDS011;5307;42.548;22.968;2023-03-23T11:50:28;10.02;;;7.57;;
10517;SDS011;5307;42.548;22.968;2023-03-23T11:53:01;12.80;;;9.20;;
10517;SDS011;5307;42.548;22.968;2023-03-23T11:55:50;12.88;;;8.95;;
10517;SDS011;5307;42.548;22.968;2023-03-23T11:58:21;12.88;;;7.55;;
10517;SDS011;5307;42.548;22.968;2023-03-23T12:00:51;13.20;;;8.98;;
10517;SDS011;5307;42.548;22.968;2023-03-23T12:03:22;10.77;;;7.97;;
10517;SDS011;5307;42.548;22.968;2023-03-23T12:05:53;13.77;;;8.85;;
10517;SDS011;5307;42.548;22.968;2023-03-23T12:08:34;13.52;;;9.73;;
10517;SDS011;5307;42.548;22.968;2023-03-23T12:11:13;12.45;;;8.43;;
10517;SDS011;5307;42.548;22.968;2023-03-23T12:13:52;10.85;;;7.53;;
10517;SDS011;5307;42.548;22.968;2023-03-23T12:16:30;10.68;;;8.00;;
10517;SDS011;5307;42.548;22.968;2023-03-23T12:19:08;13.18;;;7.68;;
10517;SDS011;5307;42.548;22.968;2023-03-23T12:21:41;11.80;;;8.23;;
10517;SDS011;5307;42.548;22.968;2023-03-23T12:24:21;10.35;;;7.85;;
10517;SDS011;5307;42.548;22.968;2023-03-23T12:27:00;11.85;;;7.80;;
10517;SDS011;5307;42.548;22.968;2023-03-23T12:29:35;9.65;;;6.45;;
10517;SDS011;5307;42.548;22.968;2023-03-23T12:32:26;10.77;;;7.90;;
10517;SDS011;5307;42.548;22.968;2023-03-23T12:35:11;10.35;;;6.63;;
10517;SDS011;5307;42.548;22.968;2023-03-23T12:37:51;9.43;;;6.50;;
10517;SDS011;5307;42.548;22.968;2023-03-23T12:40:50;10.55;;;6.45;;
10517;SDS011;5307;42.548;22.968;2023-03-23T12:43:27;7.30;;;4.43;;
10517;SDS011;5307;42.548;22.968;2023-03-23T12:46:18;11.43;;;6.68;;
10517;SDS011;5307;42.548;22.968;2023-03-23T12:48:57;7.25;;;5.80;;
10517;SDS011;5307;42.548;22.968;2023-03-23T12:51:29;8.73;;;6.00;;
10517;SDS011;5307;42.548;22.968;2023-03-23T12:54:01;12.63;;;6.18;;
10517;SDS011;5307;42.548;22.968;2023-03-23T12:56:37;8.10;;;5.38;;
10517;SDS011;5307;42.548;22.968;2023-03-23T12:59:10;10.55;;;5.78;;
10517;SDS011;5307;42.548;22.968;2023-03-23T13:01:42;7.25;;;4.13;;
10517;SDS011;5307;42.548;22.968;2023-03-23T13:04:13;8.82;;;5.88;;
10517;SDS011;5307;42.548;22.968;2023-03-23T13:06:44;9.82;;;6.05;;
10517;SDS011;5307;42.548;22.968;2023-03-23T13:09:14;8.18;;;6.10;;
10517;SDS011;5307;42.548;22.968;2023-03-23T13:11:47;8.35;;;5.65;;
10517;SDS011;5307;42.548;22.968;2023-03-23T13:14:18;11.68;;;7.00;;
10517;SDS011;5307;42.548;22.968;2023-03-23T13:16:59;12.68;;;7.15;;
10517;SDS011;5307;42.548;22.968;2023-03-23T13:19:34;10.77;;;8.10;;
10517;SDS011;5307;42.548;22.968;2023-03-23T13:22:09;11.15;;;6.45;;
10517;SDS011;5307;42.548;22.968;2023-03-23T13:24:46;11.05;;;6.90;;
10517;SDS011;5307;42.548;22.968;2023-03-23T13:27:22;12.15;;;7.78;;
10517;SDS011;5307;42.548;22.968;2023-03-23T13:29:50;11.35;;;7.40;;
10517;SDS011;5307;42.548;22.968;2023-03-23T13:32:18;10.70;;;6.97;;
10517;SDS011;5307;42.548;22.968;2023-03-23T13:34:45;10.10;;;6.40;;
10517;SDS011;5307;42.548;22.968;2023-03-23T13:37:20;12.15;;;7.80;;
10517;SDS011;5307;42.548;22.968;2023-03-23T13:39:50;9.55;;;5.90;;
10517;SDS011;5307;42.548;22.968;2023-03-23T13:42:23;8.70;;;6.13;;
10517;SDS011;5307;42.548;22.968;2023-03-23T13:44:55;10.98;;;7.15;;
10517;SDS011;5307;42.548;22.968;2023-03-23T13:47:38;11.30;;;5.93;;
10517;SDS011;5307;42.548;22.968;2023-03-23T13:50:11;8.77;;;5.90;;
10517;SDS011;5307;42.548;22.968;2023-03-23T13:52:46;6.80;;;5.47;;
10517;SDS011;5307;42.548;22.968;2023-03-23T13:55:27;8.93;;;6.50;;
10517;SDS011;5307;42.548;22.968;2023-03-23T13:58:09;8.52;;;5.43;;
10517;SDS011;5307;42.548;22.968;2023-03-23T14:00:47;8.57;;;6.18;;
10517;SDS011;5307;42.548;22.968;2023-03-23T14:03:17;8.35;;;5.50;;
10517;SDS011;5307;42.548;22.968;2023-03-23T14:05:50;10.55;;;6.40;;
10517;SDS011;5307;42.548;22.968;2023-03-23T14:08:36;8.98;;;5.78;;
10517;SDS011;5307;42.548;22.968;2023-03-23T14:11:10;8.52;;;5.60;;
10517;SDS011;5307;42.548;22.968;2023-03-23T14:13:43;5.72;;;5.03;;
10517;SDS011;5307;42.548;22.968;2023-03-23T14:16:14;6.00;;;4.78;;
10517;SDS011;5307;42.548;22.968;2023-03-23T14:18:48;9.68;;;4.97;;
10517;SDS011;5307;42.548;22.968;2023-03-23T14:21:31;9.15;;;5.28;;
10517;SDS011;5307;42.548;22.968;2023-03-23T14:24:06;6.15;;;5.00;;
10517;SDS011;5307;42.548;22.968;2023-03-23T14:26:36;8.10;;;5.55;;
10517;SDS011;5307;42.548;22.968;2023-03-23T14:29:06;9.85;;;5.90;;
10517;SDS011;5307;42.548;22.968;2023-03-23T14:31:36;13.43;;;7.63;;
10517;SDS011;5307;42.548;22.968;2023-03-23T14:34:05;16.27;;;4.55;;
10517;SDS011;5307;42.548;22.968;2023-03-23T14:36:39;8.23;;;5.05;;
10517;SDS011;5307;42.548;22.968;2023-03-23T14:39:07;6.13;;;4.53;;
10517;SDS011;5307;42.548;22.968;2023-03-23T14:41:42;6.78;;;4.97;;
10517;SDS011;5307;42.548;22.968;2023-03-23T14:44:12;6.68;;;5.50;;
10517;SDS011;5307;42.548;22.968;2023-03-23T14:46:41;6.80;;;4.63;;
10517;SDS011;5307;42.548;22.968;2023-03-23T14:49:10;8.20;;;5.40;;